createdAt,value
2023-05-08T00:00:05.983Z,1.65
2023-05-08T00:02:35.516Z,1.66
2023-05-08T00:05:05.197Z,1.63
2023-05-08T00:07:32.642Z,1.57
2023-05-08T00:09:59.944Z,1.58
2023-05-08T00:12:27.423Z,1.54
2023-05-08T00:14:54.726Z,1.50
2023-05-08T00:17:22.609Z,1.40
2023-05-08T00:19:49.977Z,1.39
2023-05-08T00:22:19.011Z,1.33
2023-05-08T00:24:46.367Z,1.25
2023-05-08T00:27:13.752Z,1.23
2023-05-08T00:29:41.409Z,1.20
2023-05-08T00:32:09.365Z,1.19
2023-05-08T00:34:36.767Z,1.16
2023-05-08T00:37:04.418Z,1.12
2023-05-08T00:39:33.382Z,1.11
2023-05-08T00:42:00.884Z,1.10
2023-05-08T00:44:28.286Z,1.10
2023-05-08T00:46:55.889Z,1.14
2023-05-08T00:49:24.180Z,1.17
2023-05-08T00:51:54.454Z,1.18
2023-05-08T00:54:22.674Z,1.20
2023-05-08T00:56:53.362Z,1.25
2023-05-08T00:59:22.907Z,1.25
2023-05-08T01:01:51.884Z,1.19
2023-05-08T01:04:21.861Z,1.16
2023-05-08T01:06:50.178Z,1.10
2023-05-08T01:09:18.132Z,1.02
2023-05-08T01:11:52.549Z,1.01
2023-05-08T01:14:28.932Z,1.04
2023-05-08T01:17:03.789Z,1.07
2023-05-08T01:19:59.071Z,1.07
2023-05-08T01:22:44.500Z,1.07
2023-05-08T01:25:46.591Z,1.08
2023-05-08T01:28:48.386Z,1.08
2023-05-08T01:31:28.402Z,1.04
2023-05-08T01:34:05.274Z,1.11
2023-05-08T01:36:40.178Z,1.08
2023-05-08T01:39:15.270Z,1.13
2023-05-08T01:41:51.287Z,1.14
2023-05-08T01:44:21.925Z,1.02
2023-05-08T01:46:51.284Z,1.17
2023-05-08T01:49:25.545Z,1.19
2023-05-08T01:52:08.759Z,1.20
2023-05-08T01:54:43.140Z,1.21
2023-05-08T01:57:12.589Z,1.22
2023-05-08T01:59:43.843Z,1.21
2023-05-08T02:02:12.587Z,1.24
2023-05-08T02:04:45.050Z,1.22
2023-05-08T02:07:12.986Z,1.20
2023-05-08T02:09:42.274Z,1.11
2023-05-08T02:12:12.419Z,1.19
2023-05-08T02:14:41.892Z,1.18
2023-05-08T02:17:11.857Z,1.18
2023-05-08T02:19:41.159Z,1.19
2023-05-08T02:22:10.915Z,1.21
2023-05-08T02:24:39.071Z,1.19
2023-05-08T02:27:09.641Z,1.14
2023-05-08T02:29:38.035Z,1.11
2023-05-08T02:32:08.858Z,1.05
2023-05-08T02:34:37.163Z,1.17
2023-05-08T02:37:06.298Z,1.23
2023-05-08T02:39:37.839Z,1.25
2023-05-08T02:42:05.332Z,1.35
2023-05-08T02:44:32.900Z,1.37
2023-05-08T02:47:09.049Z,1.23
2023-05-08T02:49:43.907Z,1.43
2023-05-08T02:52:18.947Z,1.47
2023-05-08T02:54:56.336Z,1.52
2023-05-08T02:57:32.167Z,1.63
2023-05-08T03:00:03.940Z,1.66
2023-05-08T03:02:39.964Z,1.74
2023-05-08T03:05:15.708Z,1.92
2023-05-08T03:07:45.382Z,1.96
2023-05-08T03:10:16.807Z,2.05
2023-05-08T03:12:46.644Z,2.09
2023-05-08T03:15:24.113Z,2.17
2023-05-08T03:17:55.145Z,2.25
2023-05-08T03:20:25.056Z,2.29
2023-05-08T03:22:56.087Z,2.42
2023-05-08T03:25:27.429Z,2.48
2023-05-08T03:27:57.352Z,2.57
2023-05-08T03:30:26.932Z,2.67
2023-05-08T03:33:04.256Z,2.80
2023-05-08T03:35:32.332Z,2.87
2023-05-08T03:37:59.851Z,2.96
2023-05-08T03:40:29.531Z,3.07
2023-05-08T03:42:58.542Z,3.16
2023-05-08T03:45:26.904Z,3.28
2023-05-08T03:47:55.208Z,3.41
2023-05-08T03:50:27.825Z,3.53
2023-05-08T03:53:04.085Z,3.65
2023-05-08T03:59:44.424Z,4.03
2023-05-08T04:02:21.910Z,4.19
2023-05-08T04:04:56.538Z,4.34
2023-05-08T04:07:29.016Z,4.44
2023-05-08T04:10:03.531Z,4.59
2023-05-08T04:12:38.280Z,4.77
2023-05-08T04:15:11.503Z,5.01
2023-05-08T04:17:46.453Z,5.15
2023-05-08T04:20:19.635Z,5.38
2023-05-08T04:22:50.105Z,5.51
2023-05-08T04:25:19.741Z,5.69
2023-05-08T04:27:51.380Z,5.87
2023-05-08T04:30:21.480Z,6.05
2023-05-08T04:32:50.789Z,6.19
2023-05-08T04:35:18.473Z,6.39
2023-05-08T04:37:48.085Z,6.54
2023-05-08T04:40:27.712Z,6.73
2023-05-08T04:43:45.409Z,6.90
2023-05-08T04:46:14.394Z,7.10
2023-05-08T04:48:41.824Z,7.16
2023-05-08T04:51:09.376Z,7.23
2023-05-08T04:53:37.020Z,7.34
2023-05-08T04:56:05.431Z,7.48
2023-05-08T04:58:33.113Z,7.62
2023-05-08T05:01:02.644Z,7.73
2023-05-08T05:03:31.653Z,7.82
2023-05-08T05:05:59.401Z,7.93
2023-05-08T05:08:27.131Z,8.03
2023-05-08T05:10:55.978Z,8.15
2023-05-08T05:13:23.782Z,8.24
2023-05-08T05:15:54.441Z,8.28
2023-05-08T05:18:23.381Z,8.36
2023-05-08T05:21:13.772Z,8.41
2023-05-08T05:23:41.573Z,8.48
2023-05-08T05:26:09.162Z,8.52
2023-05-08T05:28:36.838Z,8.55
2023-05-08T05:31:04.909Z,8.62
2023-05-08T05:33:32.375Z,8.69
2023-05-08T05:36:01.371Z,8.77
2023-05-08T05:38:29.069Z,8.88
2023-05-08T05:40:56.431Z,8.99
2023-05-08T05:43:23.796Z,9.11
2023-05-08T05:45:51.775Z,9.20
2023-05-08T05:48:25.491Z,9.30
2023-05-08T05:50:52.923Z,9.41
2023-05-08T05:53:22.403Z,9.58
2023-05-08T05:55:49.965Z,9.74
2023-05-08T05:58:17.483Z,9.85
2023-05-08T06:00:45.047Z,9.94
2023-05-08T06:03:12.518Z,10.05
2023-05-08T06:05:40.664Z,10.21
2023-05-08T06:08:08.598Z,10.35
2023-05-08T06:10:37.265Z,10.64
2023-05-08T06:13:04.842Z,10.99
2023-05-08T06:15:34.326Z,11.17
2023-05-08T06:18:01.907Z,11.23
2023-05-08T06:20:29.301Z,11.34
2023-05-08T06:22:56.748Z,11.64
2023-05-08T06:25:24.475Z,12.12
2023-05-08T06:27:53.490Z,12.38
2023-05-08T06:30:20.861Z,12.16
2023-05-08T06:32:48.296Z,11.72
2023-05-08T06:35:18.647Z,11.30
2023-05-08T06:37:46.838Z,11.35
2023-05-08T06:40:15.133Z,11.25
2023-05-08T06:42:42.456Z,11.57
2023-05-08T06:45:11.602Z,12.07
2023-05-08T06:47:39.576Z,12.53
2023-05-08T06:50:07.865Z,12.82
2023-05-08T06:52:35.417Z,12.91
2023-05-08T06:55:03.092Z,12.81
2023-05-08T06:57:31.923Z,12.81
2023-05-08T06:59:59.347Z,13.00
2023-05-08T07:02:28.307Z,13.12
2023-05-08T07:04:55.678Z,12.88
2023-05-08T07:07:23.041Z,12.39
2023-05-08T07:09:50.427Z,12.28
2023-05-08T07:12:17.733Z,12.49
2023-05-08T07:14:45.402Z,12.78
2023-05-08T07:17:12.706Z,12.99
2023-05-08T07:19:41.603Z,13.20
2023-05-08T07:22:09.178Z,13.22
2023-05-08T07:24:36.559Z,12.92
2023-05-08T07:27:04.159Z,12.53
2023-05-08T07:29:31.611Z,12.08
2023-05-08T07:31:59.212Z,11.68
2023-05-08T07:34:26.913Z,11.46
2023-05-08T07:36:55.861Z,11.64
2023-05-08T07:39:23.238Z,11.85
2023-05-08T07:41:50.523Z,12.12
2023-05-08T07:44:18.119Z,12.42
2023-05-08T07:46:45.702Z,12.83
2023-05-08T07:49:13.163Z,13.28
2023-05-08T07:51:41.505Z,13.49
2023-05-08T07:54:10.363Z,13.40
2023-05-08T07:56:37.711Z,13.06
2023-05-08T07:59:04.974Z,12.68
2023-05-08T08:01:32.643Z,12.79
2023-05-08T08:04:00.053Z,13.06
2023-05-08T08:06:27.603Z,13.34
2023-05-08T08:08:54.994Z,13.39
2023-05-08T08:11:24.042Z,13.66
2023-05-08T08:13:51.340Z,13.73
2023-05-08T08:16:18.641Z,13.82
2023-05-08T08:18:46.107Z,13.73
2023-05-08T08:21:13.598Z,13.35
2023-05-08T08:23:41.090Z,13.01
2023-05-08T08:26:08.462Z,12.70
2023-05-08T08:28:37.348Z,12.39
2023-05-08T08:31:04.866Z,12.20
2023-05-08T08:33:32.572Z,12.01
2023-05-08T08:36:00.070Z,11.85
2023-05-08T08:38:27.436Z,11.83
2023-05-08T08:40:55.083Z,11.83
2023-05-08T08:43:22.428Z,11.84
2023-05-08T08:45:51.795Z,11.83
2023-05-08T08:48:20.013Z,11.77
2023-05-08T08:50:52.233Z,11.66
2023-05-08T08:53:26.020Z,11.63
2023-05-08T08:55:57.270Z,11.60
2023-05-08T08:58:32.196Z,11.84
2023-05-08T09:01:04.078Z,11.91
2023-05-08T09:03:32.489Z,11.96
2023-05-08T09:06:01.580Z,12.00
2023-05-08T09:08:29.656Z,11.97
2023-05-08T09:10:57.321Z,11.90
2023-05-08T09:13:34.868Z,11.81
2023-05-08T09:16:04.243Z,11.64
2023-05-08T09:18:31.604Z,11.60
2023-05-08T09:21:03.495Z,11.55
2023-05-08T09:23:30.894Z,11.57
2023-05-08T09:25:58.199Z,11.59
2023-05-08T09:28:26.994Z,11.65
2023-05-08T09:30:56.781Z,11.67
2023-05-08T09:33:27.611Z,11.73
2023-05-08T09:35:55.931Z,11.79
2023-05-08T09:38:37.171Z,11.81
2023-05-08T09:41:09.188Z,11.81
2023-05-08T09:43:36.655Z,11.86
2023-05-08T09:46:23.921Z,11.97
2023-05-08T09:48:55.040Z,12.09
2023-05-08T09:51:23.103Z,12.44
2023-05-08T09:53:53.831Z,12.80
2023-05-08T09:56:32.272Z,12.88
2023-05-08T09:58:59.750Z,12.82
2023-05-08T10:01:29.627Z,12.68
2023-05-08T10:03:59.004Z,12.62
2023-05-08T10:06:28.390Z,12.40
2023-05-08T10:09:16.667Z,12.25
2023-05-08T10:11:54.631Z,12.12
2023-05-08T10:14:23.594Z,12.03
2023-05-08T10:16:53.070Z,11.89
2023-05-08T10:19:23.391Z,11.89
2023-05-08T10:21:52.882Z,11.78
2023-05-08T10:24:21.798Z,11.70
2023-05-08T10:27:06.198Z,11.67
2023-05-08T10:29:42.793Z,11.85
2023-05-08T10:32:10.843Z,11.99
2023-05-08T10:34:44.907Z,12.07
2023-05-08T10:37:13.309Z,12.25
2023-05-08T10:39:43.053Z,12.26
2023-05-08T10:42:11.408Z,12.35
2023-05-08T10:44:39.128Z,12.36
2023-05-08T10:47:16.433Z,12.33
2023-05-08T10:49:55.434Z,12.16
2023-05-08T10:52:43.567Z,11.88
2023-05-08T10:55:20.558Z,11.68
2023-05-08T10:58:25.412Z,11.64
2023-05-08T11:18:15.992Z,11.68
2023-05-08T11:22:26.106Z,11.54
2023-05-08T11:26:03.753Z,11.96
2023-05-08T11:28:38.080Z,12.06
2023-05-08T11:31:06.914Z,12.15
2023-05-08T11:33:39.074Z,12.21
2023-05-08T11:36:46.511Z,12.19
2023-05-08T11:40:45.579Z,12.45
2023-05-08T11:43:57.710Z,12.54
2023-05-08T11:46:40.568Z,12.69
2023-05-08T11:49:12.094Z,12.75
2023-05-08T11:52:30.586Z,12.91
2023-05-08T11:55:19.079Z,13.06
2023-05-08T11:58:13.817Z,13.08
2023-05-08T12:00:46.092Z,12.81
2023-05-08T12:03:14.822Z,12.55
2023-05-08T12:05:42.731Z,12.39
2023-05-08T12:08:10.966Z,12.43
2023-05-08T12:10:49.333Z,12.63
2023-05-08T12:13:17.647Z,12.89
2023-05-08T12:15:49.632Z,12.96
2023-05-08T12:18:17.498Z,13.04
2023-05-08T12:20:44.996Z,12.82
2023-05-08T12:23:12.822Z,12.75
2023-05-08T12:25:40.798Z,12.62
2023-05-08T12:28:09.002Z,12.49
2023-05-08T12:30:36.829Z,12.35
2023-05-08T12:33:06.809Z,12.23
2023-05-08T12:35:34.767Z,12.18
2023-05-08T12:38:03.610Z,12.03
2023-05-08T12:40:32.450Z,11.94
2023-05-08T12:43:01.858Z,11.98
2023-05-08T12:45:31.142Z,12.04
2023-05-08T12:48:01.379Z,11.93
2023-05-08T12:50:35.130Z,11.88
2023-05-08T12:53:03.919Z,11.79
2023-05-08T12:55:32.999Z,11.75
2023-05-08T12:58:02.461Z,11.73
2023-05-08T13:00:40.623Z,11.77
2023-05-08T13:03:10.236Z,11.81
2023-05-08T13:05:42.466Z,11.79
2023-05-08T13:08:11.147Z,11.86
2023-05-08T13:10:49.693Z,11.81
2023-05-08T13:13:18.838Z,11.87
2023-05-08T13:15:46.775Z,11.84
2023-05-08T13:18:14.457Z,11.79
2023-05-08T13:20:43.982Z,11.83
2023-05-08T13:23:11.730Z,11.81
2023-05-08T13:25:40.544Z,11.86
2023-05-08T13:28:09.913Z,11.88
2023-05-08T13:30:38.483Z,11.93
2023-05-08T13:33:06.413Z,11.95
2023-05-08T13:35:34.536Z,11.94
2023-05-08T13:38:31.878Z,11.99
2023-05-08T13:49:04.433Z,12.00
2023-05-08T13:51:31.843Z,12.04
2023-05-08T13:54:01.319Z,12.03
2023-05-08T13:56:28.792Z,11.96
2023-05-08T13:58:56.278Z,11.94
2023-05-08T14:01:26.848Z,11.96
2023-05-08T14:03:54.868Z,11.99
2023-05-08T14:06:22.509Z,12.03
2023-05-08T14:08:52.136Z,12.01
2023-05-08T14:11:23.735Z,12.06
2023-05-08T14:13:51.361Z,12.11
2023-05-08T14:16:18.920Z,12.11
2023-05-08T14:22:00.787Z,12.17
2023-05-08T14:24:28.234Z,12.31
2023-05-08T14:26:57.114Z,12.44
2023-05-08T14:29:24.644Z,12.45
2023-05-08T14:31:52.307Z,12.48
2023-05-08T14:34:19.735Z,12.59
2023-05-08T14:36:47.130Z,12.64
2023-05-08T14:39:14.678Z,12.63
2023-05-08T14:41:51.197Z,12.55
2023-05-08T14:44:31.719Z,12.46
2023-05-08T14:46:59.255Z,12.34
2023-05-08T14:52:14.307Z,12.15
2023-05-08T14:54:42.002Z,12.05
2023-05-08T14:57:09.657Z,11.94
2023-05-08T14:59:43.542Z,11.89
2023-05-08T15:02:18.119Z,11.88
2023-05-08T15:04:46.250Z,11.85
2023-05-08T15:07:13.605Z,11.81
2023-05-08T15:09:41.250Z,11.78
2023-05-08T15:12:08.807Z,11.70
2023-05-08T15:14:36.663Z,11.69
2023-05-08T15:17:05.472Z,11.63
2023-05-08T15:19:33.539Z,11.62
2023-05-08T15:22:00.914Z,11.59
2023-05-08T15:24:28.448Z,11.63
2023-05-08T15:26:56.010Z,11.62
2023-05-08T15:29:23.642Z,11.60
2023-05-08T15:31:51.737Z,11.58
2023-05-08T15:34:21.063Z,11.57
2023-05-08T15:36:51.152Z,11.56
2023-05-08T15:39:18.916Z,11.55
2023-05-08T15:41:46.273Z,11.50
2023-05-08T15:44:14.347Z,11.47
2023-05-08T15:46:41.682Z,11.42
2023-05-08T15:49:09.087Z,11.37
2023-05-08T15:51:37.922Z,11.33
2023-05-08T15:54:05.499Z,11.31
2023-05-08T15:56:34.443Z,11.25
2023-05-08T15:59:03.896Z,11.19
2023-05-08T16:01:32.397Z,11.14
2023-05-08T16:04:00.002Z,11.08
2023-05-08T16:06:27.576Z,11.05
2023-05-08T16:08:56.465Z,10.99
2023-05-08T16:11:23.875Z,10.99
2023-05-08T16:13:51.689Z,10.95
2023-05-08T16:16:19.262Z,10.93
2023-05-08T16:18:46.734Z,10.90
2023-05-08T16:21:14.312Z,10.85
2023-05-08T16:23:41.835Z,10.81
2023-05-08T16:26:10.610Z,10.74
2023-05-08T16:28:38.313Z,10.69
2023-05-08T16:31:07.743Z,10.64
2023-05-08T16:33:35.113Z,10.64
2023-05-08T16:36:02.454Z,10.60
2023-05-08T16:38:29.869Z,10.60
2023-05-08T16:41:01.937Z,10.58
2023-05-08T16:43:30.859Z,10.57
2023-05-08T16:45:59.474Z,10.55
2023-05-08T16:48:30.248Z,10.53
2023-05-08T16:50:58.793Z,10.52
2023-05-08T16:53:29.024Z,10.51
2023-05-08T16:56:01.674Z,10.50
2023-05-08T16:58:30.452Z,10.47
2023-05-08T17:00:59.761Z,10.42
2023-05-08T17:03:27.289Z,10.37
2023-05-08T17:05:54.648Z,10.34
2023-05-08T17:08:21.957Z,10.30
2023-05-08T17:10:54.047Z,10.25
2023-05-08T17:13:21.682Z,10.17
2023-05-08T17:15:50.480Z,10.08
2023-05-08T17:18:18.020Z,10.01
2023-05-08T17:20:45.463Z,9.95
2023-05-08T17:23:15.156Z,9.90
2023-05-08T17:25:44.875Z,9.86
2023-05-08T17:28:12.350Z,9.80
2023-05-08T17:30:39.850Z,9.72
2023-05-08T17:33:08.885Z,9.66
2023-05-08T17:35:39.158Z,9.55
2023-05-08T17:39:04.850Z,9.43
2023-05-08T17:41:32.211Z,9.31
2023-05-08T17:43:59.616Z,9.21
2023-05-08T17:46:27.346Z,9.15
2023-05-08T17:48:56.293Z,9.06
2023-05-08T17:51:32.484Z,9.00
2023-05-08T17:53:59.904Z,8.94
2023-05-08T17:56:27.338Z,8.85
2023-05-08T17:58:55.728Z,8.75
2023-05-08T18:01:24.869Z,8.69
2023-05-08T18:03:58.365Z,8.58
2023-05-08T18:06:26.210Z,8.53
2023-05-08T18:08:56.245Z,8.47
2023-05-08T18:11:27.400Z,8.36
2023-05-08T18:13:56.680Z,8.36
2023-05-08T18:16:33.610Z,8.24
2023-05-08T18:19:08.475Z,8.13
2023-05-08T18:21:35.927Z,8.09
2023-05-08T18:24:06.579Z,8.03
2023-05-08T18:26:34.049Z,7.93
2023-05-08T18:29:01.379Z,7.84
2023-05-08T18:31:28.780Z,7.73
2023-05-08T18:33:59.147Z,7.63
2023-05-08T18:36:28.906Z,7.58
2023-05-08T18:38:59.001Z,7.45
2023-05-08T18:41:28.961Z,7.39
2023-05-08T18:44:01.484Z,7.26
2023-05-08T18:46:28.830Z,7.10
2023-05-08T18:48:57.464Z,6.99
2023-05-08T18:51:25.913Z,6.86
2023-05-08T18:53:57.571Z,6.72
2023-05-08T18:56:24.859Z,6.66
2023-05-08T18:58:52.400Z,6.60
2023-05-08T19:01:21.240Z,6.55
2023-05-08T19:03:51.215Z,6.55
2023-05-08T19:06:18.797Z,6.54
2023-05-08T19:08:47.108Z,6.48
2023-05-08T19:11:16.053Z,6.40
2023-05-08T19:13:46.008Z,6.31
2023-05-08T19:16:16.392Z,6.27
2023-05-08T19:18:43.920Z,6.25
2023-05-08T19:21:11.377Z,6.24
2023-05-08T19:23:38.938Z,6.21
2023-05-08T19:26:09.014Z,6.14
2023-05-08T19:28:38.336Z,6.07
2023-05-08T19:31:05.883Z,5.98
2023-05-08T19:33:33.424Z,5.83
2023-05-08T19:36:00.779Z,5.76
2023-05-08T19:38:28.166Z,5.69
2023-05-08T19:40:57.674Z,5.61
2023-05-08T19:43:25.953Z,5.51
2023-05-08T19:45:55.646Z,5.47
2023-05-08T19:48:25.301Z,5.38
2023-05-08T19:50:54.799Z,5.31
2023-05-08T19:53:22.895Z,5.25
2023-05-08T19:55:50.352Z,5.19
2023-05-08T19:58:18.005Z,5.13
2023-05-08T20:00:50.938Z,5.09
2023-05-08T20:03:20.768Z,5.06
2023-05-08T20:05:48.577Z,5.02
2023-05-08T20:08:16.065Z,4.96
2023-05-08T20:10:43.599Z,4.88
2023-05-08T20:13:11.218Z,4.85
2023-05-08T20:15:38.698Z,4.84
2023-05-08T20:18:06.426Z,4.84
2023-05-08T20:20:35.506Z,4.82
2023-05-08T20:23:03.261Z,4.79
2023-05-08T20:25:30.738Z,4.78
2023-05-08T20:27:58.182Z,4.75
2023-05-08T20:30:25.640Z,4.71
2023-05-08T20:32:53.232Z,4.67
2023-05-08T20:35:20.720Z,4.62
2023-05-08T20:37:49.514Z,4.62
2023-05-08T20:40:17.251Z,4.62
2023-05-08T20:42:44.808Z,4.64
2023-05-08T20:45:12.359Z,4.65
2023-05-08T20:47:39.935Z,4.60
2023-05-08T20:50:08.049Z,4.63
2023-05-08T20:52:38.040Z,4.60
2023-05-08T20:55:09.317Z,4.53
2023-05-08T20:57:36.763Z,4.48
2023-05-08T21:00:05.270Z,4.40
2023-05-08T21:02:38.960Z,4.33
2023-05-08T21:05:07.393Z,4.28
2023-05-08T21:07:34.777Z,4.20
2023-05-08T21:10:02.115Z,4.20
2023-05-08T21:12:34.260Z,4.18
2023-05-08T21:15:02.044Z,4.05
2023-05-08T21:17:32.853Z,4.11
2023-05-08T21:20:00.370Z,4.11
2023-05-08T21:22:27.721Z,4.13
2023-05-08T21:24:55.182Z,4.13
2023-05-08T21:27:22.599Z,4.13
2023-05-08T21:29:51.585Z,4.10
2023-05-08T21:32:19.252Z,4.04
2023-05-08T21:34:46.789Z,3.97
2023-05-08T21:37:14.542Z,3.92
2023-05-08T21:39:42.057Z,3.87
2023-05-08T21:42:09.442Z,3.83
2023-05-08T21:44:37.085Z,3.77
2023-05-08T21:47:06.493Z,3.72
2023-05-08T21:49:34.090Z,3.67
2023-05-08T21:52:01.380Z,3.66
2023-05-08T21:54:28.763Z,3.53
2023-05-08T21:56:56.239Z,3.56
2023-05-08T21:59:23.846Z,3.53
2023-05-08T22:01:51.800Z,3.52
2023-05-08T22:04:20.936Z,3.50
2023-05-08T22:06:48.252Z,3.46
2023-05-08T22:09:15.658Z,3.43
2023-05-08T22:11:42.945Z,3.41
2023-05-08T22:14:10.636Z,3.42
2023-05-08T22:16:38.451Z,3.46
2023-05-08T22:19:06.105Z,3.43
2023-05-08T22:21:35.012Z,3.42
2023-05-08T22:24:02.577Z,3.41
2023-05-08T22:26:29.968Z,3.39
2023-05-08T22:28:57.418Z,3.37
2023-05-08T22:31:24.851Z,3.36
2023-05-08T22:33:52.382Z,3.36
2023-05-08T22:36:19.602Z,3.32
2023-05-08T22:38:48.373Z,3.35
2023-05-08T22:41:15.941Z,3.28
2023-05-08T22:43:43.502Z,3.21
2023-05-08T22:46:11.608Z,3.22
2023-05-08T22:48:39.260Z,3.25
2023-05-08T22:51:07.229Z,3.29
2023-05-08T22:53:34.506Z,3.28
2023-05-08T22:56:03.596Z,3.30
2023-05-08T22:58:31.014Z,3.27
2023-05-08T23:00:59.873Z,3.24
2023-05-08T23:03:27.594Z,3.19
2023-05-08T23:05:54.954Z,3.15
2023-05-08T23:08:22.664Z,3.09
2023-05-08T23:10:50.276Z,3.06
2023-05-08T23:13:19.006Z,3.01
2023-05-08T23:15:46.355Z,3.02
2023-05-08T23:18:13.740Z,3.01
2023-05-08T23:20:41.118Z,3.00
2023-05-08T23:23:08.436Z,2.98
2023-05-08T23:25:35.787Z,3.00
2023-05-08T23:28:03.128Z,2.99
2023-05-08T23:30:32.037Z,2.96
2023-05-08T23:32:59.400Z,2.94
2023-05-08T23:35:26.949Z,2.90
2023-05-08T23:37:54.377Z,2.90
2023-05-08T23:40:22.022Z,2.88
2023-05-08T23:42:49.288Z,2.86
2023-05-08T23:45:17.001Z,2.87
2023-05-08T23:47:46.535Z,2.89
2023-05-08T23:50:14.006Z,2.91
2023-05-08T23:52:41.861Z,2.93
2023-05-08T23:55:09.658Z,2.92
2023-05-08T23:57:37.174Z,2.91
